createdAt,value
2022-12-01T00:01:24.269Z,25.52
2022-12-01T00:03:51.429Z,23.23
2022-12-01T00:06:21.620Z,22.00
2022-12-01T00:09:09.225Z,21.50
2022-12-01T00:11:38.067Z,21.30
2022-12-01T00:14:06.039Z,21.15
2022-12-01T00:16:34.121Z,20.77
2022-12-01T00:19:01.307Z,21.92
2022-12-01T00:21:28.575Z,22.73
2022-12-01T00:23:57.702Z,22.30
2022-12-01T00:26:26.130Z,21.33
2022-12-01T00:28:59.157Z,21.92
2022-12-01T00:31:27.064Z,21.75
2022-12-01T00:33:54.880Z,22.92
2022-12-01T00:36:22.963Z,22.55
2022-12-01T00:38:56.949Z,19.75
2022-12-01T00:41:25.944Z,20.33
2022-12-01T00:43:53.034Z,20.00
2022-12-01T00:46:20.305Z,17.77
2022-12-01T00:48:47.960Z,22.58
2022-12-01T00:51:15.151Z,21.58
2022-12-01T00:53:42.309Z,19.90
2022-12-01T00:56:09.423Z,21.00
2022-12-01T00:58:36.634Z,22.00
2022-12-01T01:01:04.084Z,19.45
2022-12-01T01:03:32.456Z,20.00
2022-12-01T01:06:11.192Z,21.58
2022-12-01T01:08:38.736Z,20.90
2022-12-01T01:11:07.176Z,19.50
2022-12-01T01:13:35.668Z,20.38
2022-12-01T01:16:04.471Z,19.40
2022-12-01T01:18:32.081Z,18.58
2022-12-01T01:21:04.796Z,23.20
2022-12-01T01:23:32.027Z,21.05
2022-12-01T01:26:04.988Z,23.17
2022-12-01T01:28:32.958Z,20.73
2022-12-01T01:31:04.355Z,21.85
2022-12-01T01:33:31.539Z,21.13
2022-12-01T01:36:02.549Z,20.50
2022-12-01T01:38:30.136Z,22.88
2022-12-01T01:40:57.454Z,20.10
2022-12-01T01:43:44.890Z,20.77
2022-12-01T01:46:15.896Z,19.52
2022-12-01T01:49:03.626Z,20.48
2022-12-01T01:51:42.668Z,21.33
2022-12-01T01:54:18.096Z,20.55
2022-12-01T01:56:47.831Z,22.17
2022-12-01T01:59:19.060Z,24.00
2022-12-01T02:01:52.071Z,22.48
2022-12-01T02:04:20.607Z,19.98
2022-12-01T02:06:47.778Z,19.67
2022-12-01T02:09:16.162Z,20.02
2022-12-01T02:11:57.340Z,19.67
2022-12-01T02:14:49.737Z,18.92
2022-12-01T02:17:45.355Z,21.73
2022-12-01T02:20:49.841Z,19.85
2022-12-01T02:23:35.183Z,20.23
2022-12-01T02:26:33.789Z,14.85
2022-12-01T02:29:29.867Z,16.60
2022-12-01T02:32:20.621Z,14.50
2022-12-01T02:34:56.435Z,16.70
2022-12-01T02:37:51.135Z,14.48
2022-12-01T02:40:32.976Z,15.13
2022-12-01T02:43:03.842Z,15.32
2022-12-01T02:45:42.096Z,16.20
2022-12-01T02:48:16.222Z,15.40
2022-12-01T02:50:45.696Z,16.77
2022-12-01T02:53:17.145Z,17.88
2022-12-01T02:55:55.859Z,18.25
2022-12-01T02:58:23.001Z,18.08
2022-12-01T03:01:21.387Z,18.80
2022-12-01T03:03:56.305Z,15.90
2022-12-01T03:06:55.267Z,15.93
2022-12-01T03:09:56.485Z,14.13
2022-12-01T03:12:37.456Z,19.83
2022-12-01T03:15:39.684Z,17.00
2022-12-01T03:18:15.944Z,15.50
2022-12-01T03:21:04.873Z,15.63
2022-12-01T03:23:35.781Z,15.77
2022-12-01T03:26:07.128Z,14.85
2022-12-01T03:28:39.900Z,17.87
2022-12-01T03:31:11.942Z,16.40
2022-12-01T03:33:55.562Z,18.50
2022-12-01T03:36:27.636Z,16.55
2022-12-01T03:39:04.717Z,14.98
2022-12-01T03:41:47.652Z,18.55
2022-12-01T03:44:29.526Z,15.95
2022-12-01T03:47:14.591Z,15.70
2022-12-01T03:49:42.897Z,16.55
2022-12-01T03:52:20.401Z,16.85
2022-12-01T03:55:09.045Z,16.77
2022-12-01T03:58:07.162Z,18.50
2022-12-01T04:00:34.914Z,17.50
2022-12-01T04:03:04.196Z,16.50
2022-12-01T04:05:33.339Z,15.95
2022-12-01T04:08:01.144Z,16.20
2022-12-01T04:10:28.324Z,17.98
2022-12-01T04:12:59.488Z,15.00
2022-12-01T04:15:27.585Z,14.25
2022-12-01T04:17:55.148Z,16.38
2022-12-01T04:20:22.737Z,16.50
2022-12-01T04:22:49.888Z,18.27
2022-12-01T04:25:17.155Z,16.80
2022-12-01T04:27:44.369Z,15.95
2022-12-01T04:30:12.594Z,16.20
2022-12-01T04:32:41.591Z,15.00
2022-12-01T04:35:11.921Z,15.05
2022-12-01T04:37:40.027Z,16.63
2022-12-01T04:40:07.916Z,18.85
2022-12-01T04:42:35.083Z,15.65
2022-12-01T04:45:02.161Z,17.42
2022-12-01T04:47:29.233Z,18.38
2022-12-01T04:49:56.402Z,17.73
2022-12-01T04:52:23.441Z,15.57
2022-12-01T04:54:50.586Z,15.57
2022-12-01T04:57:17.650Z,14.85
2022-12-01T04:59:44.714Z,16.52
2022-12-01T05:02:11.861Z,16.33
2022-12-01T05:04:41.555Z,16.13
2022-12-01T05:07:09.103Z,17.25
2022-12-01T05:09:36.484Z,16.50
2022-12-01T05:12:03.841Z,16.33
2022-12-01T05:14:30.962Z,14.27
2022-12-01T05:16:59.824Z,15.98
2022-12-01T05:19:45.979Z,17.55
2022-12-01T05:22:13.251Z,16.25
2022-12-01T05:24:40.291Z,14.95
2022-12-01T05:27:07.452Z,15.85
2022-12-01T05:29:35.914Z,16.92
2022-12-01T05:32:03.824Z,15.13
2022-12-01T05:34:31.143Z,15.77
2022-12-01T05:36:58.266Z,15.30
2022-12-01T05:39:25.451Z,16.92
2022-12-01T05:41:52.749Z,17.35
2022-12-01T05:44:19.996Z,14.82
2022-12-01T05:46:47.083Z,14.20
2022-12-01T05:49:14.262Z,17.98
2022-12-01T05:51:43.358Z,16.83
2022-12-01T05:54:10.469Z,16.23
2022-12-01T05:56:37.748Z,16.75
2022-12-01T05:59:04.927Z,15.07
2022-12-01T06:01:32.057Z,16.23
2022-12-01T06:03:59.355Z,16.17
2022-12-01T06:06:26.566Z,16.77
2022-12-01T06:08:53.740Z,15.95
2022-12-01T06:11:21.080Z,13.98
2022-12-01T06:13:48.368Z,14.40
2022-12-01T06:16:15.454Z,16.60
2022-12-01T06:18:42.586Z,17.25
2022-12-01T06:21:09.707Z,14.07
2022-12-01T06:23:36.801Z,14.65
2022-12-01T06:26:04.019Z,14.73
2022-12-01T06:28:31.315Z,15.93
2022-12-01T06:31:03.124Z,14.90
2022-12-01T06:33:31.653Z,16.33
2022-12-01T06:36:00.227Z,15.60
2022-12-01T06:38:30.378Z,16.02
2022-12-01T06:40:57.726Z,17.70
2022-12-01T06:43:24.848Z,16.65
2022-12-01T06:45:55.224Z,17.13
2022-12-01T06:48:26.668Z,16.42
2022-12-01T06:51:00.568Z,16.30
2022-12-01T06:53:28.808Z,15.45
2022-12-01T06:56:04.742Z,14.25
2022-12-01T06:58:32.907Z,16.20
2022-12-01T07:01:00.435Z,14.52
2022-12-01T07:03:27.587Z,14.85
2022-12-01T07:06:00.229Z,13.70
2022-12-01T07:08:28.699Z,14.20
2022-12-01T07:11:12.592Z,16.20
2022-12-01T07:13:40.937Z,15.45
2022-12-01T07:16:09.672Z,15.88
2022-12-01T07:18:38.631Z,14.15
2022-12-01T07:21:10.316Z,13.55
2022-12-01T07:23:37.622Z,14.98
2022-12-01T07:26:07.979Z,14.25
2022-12-01T07:28:35.110Z,14.73
2022-12-01T07:31:06.920Z,13.60
2022-12-01T07:33:37.126Z,14.60
2022-12-01T07:36:04.964Z,14.98
2022-12-01T07:38:33.953Z,15.55
2022-12-01T07:41:08.915Z,14.02
2022-12-01T07:43:36.525Z,14.52
2022-12-01T07:46:20.373Z,13.73
2022-12-01T07:48:49.826Z,15.85
2022-12-01T07:51:17.885Z,14.25
2022-12-01T07:53:46.200Z,14.23
2022-12-01T07:56:14.124Z,14.18
2022-12-01T07:58:41.913Z,15.38
2022-12-01T08:01:20.487Z,13.02
2022-12-01T08:03:54.469Z,12.82
2022-12-01T08:06:35.077Z,11.85
2022-12-01T08:09:02.533Z,11.63
2022-12-01T08:11:29.965Z,12.00
2022-12-01T08:13:57.148Z,19.25
2022-12-01T08:16:34.079Z,11.13
2022-12-01T08:19:07.153Z,12.73
2022-12-01T08:21:38.122Z,12.23
2022-12-01T08:24:10.991Z,11.65
2022-12-01T08:26:39.971Z,13.82
2022-12-01T08:29:18.516Z,15.43
2022-12-01T08:31:48.652Z,14.77
2022-12-01T08:34:16.696Z,14.30
2022-12-01T08:36:43.929Z,12.45
2022-12-01T08:39:11.452Z,13.32
2022-12-01T08:41:52.070Z,12.45
2022-12-01T08:44:19.399Z,11.00
2022-12-01T08:46:46.686Z,11.05
2022-12-01T08:49:13.986Z,12.52
2022-12-01T08:51:41.116Z,12.93
2022-12-01T08:54:09.914Z,12.77
2022-12-01T08:56:44.635Z,11.52
2022-12-01T08:59:11.970Z,12.50
2022-12-01T09:01:52.085Z,12.38
2022-12-01T09:04:21.360Z,12.82
2022-12-01T09:06:49.783Z,12.02
2022-12-01T09:09:23.220Z,13.57
2022-12-01T09:11:52.491Z,11.00
2022-12-01T09:14:21.018Z,12.32
2022-12-01T09:16:52.481Z,11.23
2022-12-01T09:19:24.643Z,12.23
2022-12-01T09:21:53.117Z,12.60
2022-12-01T09:24:20.285Z,12.00
2022-12-01T09:26:47.691Z,11.57
2022-12-01T09:29:15.954Z,13.25
2022-12-01T09:31:43.876Z,12.10
2022-12-01T09:34:14.806Z,11.70
2022-12-01T09:36:42.244Z,12.18
2022-12-01T09:39:13.884Z,12.18
2022-12-01T09:41:45.177Z,11.57
2022-12-01T09:44:34.308Z,12.20
2022-12-01T09:47:07.319Z,11.82
2022-12-01T09:50:02.485Z,13.65
2022-12-01T09:52:34.980Z,14.60
2022-12-01T09:55:02.517Z,14.02
2022-12-01T09:57:38.055Z,12.05
2022-12-01T10:00:21.268Z,12.45
2022-12-01T10:02:56.937Z,13.25
2022-12-01T10:05:46.901Z,12.88
2022-12-01T10:08:29.488Z,11.63
2022-12-01T10:11:05.067Z,13.85
2022-12-01T10:13:34.159Z,13.45
2022-12-01T10:16:16.078Z,13.25
2022-12-01T10:18:46.013Z,13.88
2022-12-01T10:21:34.938Z,11.63
2022-12-01T10:24:08.244Z,13.57
2022-12-01T10:26:57.331Z,15.20
2022-12-01T10:29:47.799Z,12.73
2022-12-01T10:32:32.771Z,13.93
2022-12-01T10:35:00.091Z,13.52
2022-12-01T10:37:30.769Z,14.15
2022-12-01T10:39:59.079Z,17.60
2022-12-01T10:42:39.819Z,19.05
2022-12-01T10:45:21.699Z,19.65
2022-12-01T10:48:17.024Z,19.17
2022-12-01T10:50:55.690Z,17.40
2022-12-01T10:53:30.827Z,20.23
2022-12-01T10:56:22.004Z,18.95
2022-12-01T10:58:57.949Z,18.20
2022-12-01T11:01:32.103Z,19.17
2022-12-01T11:04:19.223Z,19.23
2022-12-01T11:06:50.217Z,17.58
2022-12-01T11:09:33.693Z,17.80
2022-12-01T11:12:03.959Z,17.92
2022-12-01T11:14:46.073Z,17.63
2022-12-01T11:17:17.590Z,16.95
2022-12-01T11:19:44.922Z,17.02
2022-12-01T11:22:20.098Z,14.40
2022-12-01T11:24:53.368Z,17.13
2022-12-01T11:27:48.093Z,16.98
2022-12-01T11:30:26.352Z,17.48
2022-12-01T11:32:57.163Z,17.55
2022-12-01T11:35:28.664Z,15.02
2022-12-01T11:38:29.437Z,12.43
2022-12-01T11:40:48.216Z,12.00
2022-12-01T11:43:29.667Z,14.38
2022-12-01T11:46:00.572Z,12.30
2022-12-01T11:48:31.404Z,11.65
2022-12-01T11:51:04.420Z,11.45
2022-12-01T11:53:37.618Z,11.02
2022-12-01T11:56:25.224Z,13.05
2022-12-01T11:59:04.403Z,14.07
2022-12-01T12:01:53.301Z,16.20
2022-12-01T12:04:45.231Z,20.20
2022-12-01T12:07:34.112Z,18.63
2022-12-01T12:10:19.868Z,19.50
2022-12-01T12:13:12.622Z,21.23
2022-12-01T12:15:58.186Z,21.00
2022-12-01T12:18:50.512Z,20.75
2022-12-01T12:21:33.177Z,16.25
2022-12-01T12:24:41.974Z,16.65
2022-12-01T12:27:30.838Z,18.05
2022-12-01T12:30:24.338Z,19.13
2022-12-01T12:33:22.519Z,20.05
2022-12-01T12:36:04.896Z,20.77
2022-12-01T12:41:29.835Z,20.10
2022-12-01T12:44:22.312Z,18.75
2022-12-01T12:47:24.681Z,20.25
2022-12-01T12:50:30.454Z,19.27
2022-12-01T12:53:03.617Z,17.58
2022-12-01T12:55:33.814Z,16.10
2022-12-01T12:58:29.246Z,15.57
2022-12-01T13:01:05.565Z,18.80
2022-12-01T13:03:35.913Z,16.40
2022-12-01T13:06:06.880Z,16.60
2022-12-01T13:08:44.269Z,18.55
2022-12-01T13:11:36.634Z,16.33
2022-12-01T13:14:19.862Z,16.58
2022-12-01T13:16:50.085Z,16.85
2022-12-01T13:19:27.286Z,19.08
2022-12-01T13:21:55.832Z,17.77
2022-12-01T13:24:25.148Z,20.17
2022-12-01T13:27:00.357Z,17.05
2022-12-01T13:29:32.454Z,17.98
2022-12-01T13:31:59.852Z,20.23
2022-12-01T13:34:40.973Z,18.50
2022-12-01T13:37:10.773Z,18.52
2022-12-01T13:39:41.110Z,19.80
2022-12-01T13:42:20.555Z,22.77
2022-12-01T13:45:18.131Z,21.23
2022-12-01T13:47:58.520Z,19.77
2022-12-01T13:50:44.046Z,23.45
2022-12-01T13:53:20.168Z,21.77
2022-12-01T13:56:26.361Z,20.10
2022-12-01T13:58:57.612Z,20.42
2022-12-01T14:01:25.248Z,19.37
2022-12-01T14:04:10.718Z,18.67
2022-12-01T14:06:49.627Z,18.20
2022-12-01T14:09:32.771Z,20.00
2022-12-01T14:12:24.932Z,20.20
2022-12-01T14:15:00.326Z,18.80
2022-12-01T14:17:31.315Z,24.77
2022-12-01T14:20:13.509Z,24.00
2022-12-01T14:23:24.253Z,23.35
2022-12-01T14:26:10.906Z,21.42
2022-12-01T14:28:56.398Z,21.65
2022-12-01T14:31:25.664Z,22.73
2022-12-01T14:33:59.000Z,21.80
2022-12-01T14:36:41.125Z,20.23
2022-12-01T14:39:29.794Z,19.83
2022-12-01T14:42:10.440Z,24.27
2022-12-01T14:44:54.081Z,21.13
2022-12-01T14:47:29.904Z,22.17
2022-12-01T14:50:01.250Z,23.10
2022-12-01T14:52:28.412Z,24.07
2022-12-01T14:54:58.620Z,21.63
2022-12-01T14:57:34.602Z,21.60
2022-12-01T15:00:22.084Z,20.83
2022-12-01T15:03:00.563Z,20.55
2022-12-01T15:05:32.429Z,22.33
2022-12-01T15:08:40.200Z,21.55
2022-12-01T15:11:07.874Z,20.45
2022-12-01T15:13:58.453Z,20.52
2022-12-01T15:16:29.633Z,21.20
2022-12-01T15:18:57.138Z,25.27
2022-12-01T15:21:27.842Z,22.67
2022-12-01T15:24:20.821Z,22.75
2022-12-01T15:26:50.710Z,20.70
2022-12-01T15:29:33.171Z,26.92
2022-12-01T15:32:08.831Z,24.35
2022-12-01T15:34:43.038Z,27.25
2022-12-01T15:37:16.494Z,26.95
2022-12-01T15:39:52.609Z,33.42
2022-12-01T15:42:26.632Z,28.85
2022-12-01T15:45:00.335Z,28.20
2022-12-01T15:47:59.324Z,28.58
2022-12-01T15:50:39.737Z,25.00
2022-12-01T15:53:26.122Z,20.27
2022-12-01T15:55:58.748Z,22.23
2022-12-01T15:58:33.081Z,21.95
2022-12-01T16:01:09.051Z,25.05
2022-12-01T16:03:50.813Z,26.40
2022-12-01T16:06:19.072Z,26.95
2022-12-01T16:09:02.333Z,29.95
2022-12-01T16:11:30.103Z,32.10
2022-12-01T16:14:04.485Z,27.60
2022-12-01T16:16:38.908Z,26.83
2022-12-01T16:19:09.394Z,29.48
2022-12-01T16:21:47.474Z,30.00
2022-12-01T16:24:23.789Z,32.35
2022-12-01T16:26:55.453Z,30.10
2022-12-01T16:29:24.954Z,30.55
2022-12-01T16:34:48.211Z,29.88
2022-12-01T16:37:16.143Z,28.05
2022-12-01T16:39:43.629Z,26.55
2022-12-01T16:42:21.178Z,29.88
2022-12-01T16:44:50.199Z,27.80
2022-12-01T16:47:22.050Z,28.60
2022-12-01T16:49:49.834Z,32.83
2022-12-01T16:55:05.284Z,27.70
2022-12-01T16:57:32.364Z,29.25
2022-12-01T16:59:59.499Z,27.20
2022-12-01T17:02:26.729Z,28.83
2022-12-01T17:04:53.912Z,22.52
2022-12-01T17:07:21.250Z,23.38
2022-12-01T17:09:48.468Z,23.90
2022-12-01T17:12:15.650Z,25.60
2022-12-01T17:14:42.757Z,23.75
2022-12-01T17:17:09.987Z,24.15
2022-12-01T17:19:37.201Z,21.98
2022-12-01T17:22:04.274Z,25.02
2022-12-01T17:24:31.488Z,20.20
2022-12-01T17:26:58.714Z,27.85
2022-12-01T17:29:26.451Z,28.33
2022-12-01T17:31:53.715Z,26.55
2022-12-01T17:34:20.926Z,25.83
2022-12-01T17:36:48.077Z,25.90
2022-12-01T17:39:15.178Z,24.80
2022-12-01T17:41:42.346Z,23.02
2022-12-01T17:44:09.622Z,25.50
2022-12-01T17:46:38.488Z,24.63
2022-12-01T17:49:09.415Z,26.35
2022-12-01T17:51:37.322Z,29.63
2022-12-01T17:54:04.909Z,32.20
2022-12-01T17:56:32.583Z,31.33
2022-12-01T17:58:59.718Z,28.75
2022-12-01T18:01:30.222Z,27.05
2022-12-01T18:03:59.065Z,26.40
2022-12-01T18:06:27.041Z,26.38
2022-12-01T18:08:55.050Z,31.35
2022-12-01T18:11:22.958Z,32.83
2022-12-01T18:13:51.779Z,26.35
2022-12-01T18:16:21.760Z,29.02
2022-12-01T18:18:49.804Z,26.95
2022-12-01T18:21:19.187Z,29.13
2022-12-01T18:23:51.136Z,26.83
2022-12-01T18:26:20.571Z,26.83
2022-12-01T18:28:52.832Z,27.15
2022-12-01T18:33:47.073Z,24.90
2022-12-01T18:36:25.228Z,32.08
2022-12-01T18:38:54.503Z,30.17
2022-12-01T18:41:21.712Z,30.38
2022-12-01T18:43:48.932Z,34.67
2022-12-01T18:46:17.625Z,33.92
2022-12-01T18:48:51.031Z,31.50
2022-12-01T18:51:19.257Z,29.77
2022-12-01T18:53:46.888Z,27.90
2022-12-01T18:56:15.581Z,32.17
2022-12-01T18:58:43.126Z,29.25
2022-12-01T19:01:25.061Z,30.92
2022-12-01T19:03:52.311Z,30.92
2022-12-01T19:06:19.592Z,29.33
2022-12-01T19:08:47.089Z,28.85
2022-12-01T19:11:15.240Z,31.20
2022-12-01T19:13:42.685Z,29.60
2022-12-01T19:16:13.151Z,29.27
2022-12-01T19:18:40.600Z,29.73
2022-12-01T19:21:10.102Z,29.40
2022-12-01T19:23:37.842Z,29.83
2022-12-01T19:26:11.630Z,31.10
2022-12-01T19:28:40.355Z,28.48
2022-12-01T19:31:11.217Z,30.98
2022-12-01T19:33:38.839Z,28.33
2022-12-01T19:36:27.259Z,27.15
2022-12-01T19:38:57.852Z,27.35
2022-12-01T19:41:26.141Z,26.52
2022-12-01T19:43:55.125Z,27.17
2022-12-01T19:46:24.893Z,28.92
2022-12-01T19:49:00.709Z,27.88
2022-12-01T19:51:35.228Z,29.02
2022-12-01T19:54:03.792Z,27.63
2022-12-01T19:56:31.715Z,29.38
2022-12-01T19:58:59.568Z,28.85
2022-12-01T20:01:27.841Z,27.90
2022-12-01T20:03:55.609Z,27.63
2022-12-01T20:06:28.739Z,29.40
2022-12-01T20:08:59.534Z,25.70
2022-12-01T20:11:29.690Z,29.35
2022-12-01T20:13:56.903Z,28.33
2022-12-01T20:16:25.754Z,27.45
2022-12-01T20:18:54.191Z,28.23
2022-12-01T20:21:27.242Z,27.27
2022-12-01T20:24:01.280Z,29.48
2022-12-01T20:26:31.979Z,28.40
2022-12-01T20:29:02.209Z,27.98
2022-12-01T20:31:30.703Z,26.65
2022-12-01T20:33:59.669Z,24.35
2022-12-01T20:36:27.156Z,27.95
2022-12-01T20:38:54.832Z,24.73
2022-12-01T20:41:22.551Z,23.98
2022-12-01T20:43:49.878Z,24.42
2022-12-01T20:46:17.176Z,23.52
2022-12-01T20:48:44.578Z,25.00
2022-12-01T20:51:14.208Z,25.25
2022-12-01T20:53:54.496Z,23.10
2022-12-01T20:56:29.350Z,24.77
2022-12-01T20:58:56.483Z,23.52
2022-12-01T21:01:23.888Z,27.27
2022-12-01T21:03:51.187Z,24.38
2022-12-01T21:06:19.125Z,22.40
2022-12-01T21:08:48.121Z,22.38
2022-12-01T21:11:41.714Z,23.40
2022-12-01T21:14:35.300Z,23.30
2022-12-01T21:17:21.532Z,26.17
2022-12-01T21:20:01.597Z,23.05
2022-12-01T21:22:28.862Z,24.17
2022-12-01T21:25:10.170Z,22.08
2022-12-01T21:27:37.311Z,19.83
2022-12-01T21:30:15.738Z,20.98
2022-12-01T21:32:44.239Z,19.92
2022-12-01T21:35:24.806Z,23.00
2022-12-01T21:37:59.222Z,23.15
2022-12-01T21:40:27.079Z,19.58
2022-12-01T21:42:56.248Z,22.35
2022-12-01T21:45:29.078Z,20.95
2022-12-01T21:48:10.706Z,19.70
2022-12-01T21:50:37.878Z,19.95
2022-12-01T21:53:15.497Z,19.15
2022-12-01T21:55:45.408Z,22.27
2022-12-01T21:58:18.702Z,20.15
2022-12-01T22:00:45.988Z,20.45
2022-12-01T22:03:27.069Z,24.63
2022-12-01T22:06:29.358Z,20.80
2022-12-01T22:09:12.343Z,22.08
2022-12-01T22:11:45.632Z,24.30
2022-12-01T22:14:17.323Z,21.05
2022-12-01T22:16:48.675Z,22.15
2022-12-01T22:19:15.808Z,25.67
2022-12-01T22:22:09.026Z,23.90
2022-12-01T22:24:48.001Z,23.30
2022-12-01T22:27:33.581Z,21.08
2022-12-01T22:30:18.431Z,20.42
2022-12-01T22:32:58.386Z,22.40
2022-12-01T22:35:38.923Z,23.25
2022-12-01T22:38:06.060Z,23.70
2022-12-01T22:40:41.540Z,22.45
2022-12-01T22:43:18.127Z,21.48
2022-12-01T22:45:52.943Z,22.40
2022-12-01T22:48:34.377Z,19.42
2022-12-01T22:51:22.377Z,23.47
2022-12-01T22:53:51.859Z,25.88
2022-12-01T22:56:34.174Z,21.52
2022-12-01T22:59:10.815Z,23.02
2022-12-01T23:02:07.805Z,19.60
2022-12-01T23:04:42.630Z,20.70
2022-12-01T23:07:16.118Z,23.52
2022-12-01T23:09:44.619Z,20.30
2022-12-01T23:12:11.757Z,21.73
2022-12-01T23:14:44.521Z,22.77
2022-12-01T23:17:20.493Z,21.77
2022-12-01T23:19:49.981Z,23.95
2022-12-01T23:22:17.627Z,22.63
2022-12-01T23:24:45.649Z,23.58
2022-12-01T23:27:13.944Z,24.48
2022-12-01T23:29:41.058Z,25.35
2022-12-01T23:32:09.999Z,26.98
2022-12-01T23:34:37.249Z,24.58
2022-12-01T23:37:06.442Z,25.90
2022-12-01T23:39:35.712Z,25.27
2022-12-01T23:42:12.784Z,25.95
2022-12-01T23:44:49.810Z,23.40
2022-12-01T23:47:24.775Z,20.42
2022-12-01T23:50:25.552Z,22.48
2022-12-01T23:52:53.551Z,22.58
2022-12-01T23:55:28.743Z,23.92
2022-12-01T23:57:57.056Z,23.30
